createdAt,value
2022-11-05T00:00:32.969Z,7.78
2022-11-05T00:03:18.874Z,7.97
2022-11-05T00:06:06.798Z,7.75
2022-11-05T00:08:52.811Z,8.45
2022-11-05T00:11:39.869Z,8.45
2022-11-05T00:14:25.571Z,8.02
2022-11-05T00:16:52.564Z,8.10
2022-11-05T00:19:19.824Z,8.48
2022-11-05T00:22:05.671Z,7.50
2022-11-05T00:24:51.261Z,7.65
2022-11-05T00:27:18.774Z,7.60
2022-11-05T00:29:45.829Z,8.25
2022-11-05T00:32:13.347Z,7.28
2022-11-05T00:34:40.456Z,7.68
2022-11-05T00:37:07.766Z,7.40
2022-11-05T00:39:34.849Z,7.40
2022-11-05T00:42:20.339Z,7.28
2022-11-05T00:45:08.208Z,7.20
2022-11-05T00:47:53.824Z,7.30
2022-11-05T00:50:22.397Z,7.43
2022-11-05T00:52:58.264Z,7.40
2022-11-05T00:55:42.758Z,7.65
2022-11-05T00:58:16.021Z,7.28
2022-11-05T01:00:50.166Z,6.75
2022-11-05T01:03:19.870Z,7.47
2022-11-05T01:05:50.474Z,8.10
2022-11-05T01:08:20.614Z,7.75
2022-11-05T01:10:53.924Z,7.63
2022-11-05T01:13:26.145Z,7.22
2022-11-05T01:18:21.549Z,5.97
2022-11-05T01:20:49.412Z,6.72
2022-11-05T01:23:17.158Z,6.75
2022-11-05T01:25:44.389Z,6.47
2022-11-05T01:28:11.751Z,6.72
2022-11-05T01:30:39.212Z,7.28
2022-11-05T01:33:09.555Z,6.20
2022-11-05T01:35:36.956Z,6.80
2022-11-05T01:38:04.156Z,6.25
2022-11-05T01:40:31.206Z,6.03
2022-11-05T01:42:58.652Z,6.05
2022-11-05T01:45:27.890Z,5.85
2022-11-05T01:48:07.670Z,5.50
2022-11-05T01:50:41.403Z,5.10
2022-11-05T01:53:27.110Z,5.22
2022-11-05T01:56:07.586Z,5.13
2022-11-05T01:58:40.408Z,4.70
2022-11-05T02:01:07.504Z,5.18
2022-11-05T02:03:34.992Z,4.80
2022-11-05T02:06:02.953Z,4.80
2022-11-05T02:08:59.991Z,4.80
2022-11-05T02:11:27.373Z,4.35
2022-11-05T02:13:55.242Z,4.70
2022-11-05T02:16:43.598Z,4.75
2022-11-05T02:19:41.169Z,4.10
2022-11-05T02:22:34.978Z,4.35
2022-11-05T02:25:34.984Z,4.55
2022-11-05T02:28:21.007Z,4.07
2022-11-05T02:30:57.294Z,3.65
2022-11-05T02:33:57.905Z,4.47
2022-11-05T02:36:40.783Z,2.80
2022-11-05T02:39:32.079Z,3.95
2022-11-05T02:42:07.861Z,4.20
2022-11-05T02:44:47.544Z,3.00
2022-11-05T02:47:20.432Z,3.38
2022-11-05T02:50:02.504Z,3.20
2022-11-05T02:52:43.270Z,3.20
2022-11-05T02:55:24.372Z,2.75
2022-11-05T02:57:51.720Z,4.03
2022-11-05T03:00:55.222Z,2.95
2022-11-05T03:03:27.484Z,2.97
2022-11-05T03:06:06.090Z,3.53
2022-11-05T03:08:57.123Z,3.33
2022-11-05T03:11:28.669Z,3.05
2022-11-05T03:14:02.715Z,2.95
2022-11-05T03:17:05.162Z,3.45
2022-11-05T03:20:21.805Z,3.45
2022-11-05T03:23:14.672Z,3.10
2022-11-05T03:25:53.860Z,3.20
2022-11-05T03:28:24.503Z,4.00
2022-11-05T03:30:54.895Z,3.75
2022-11-05T03:33:27.636Z,2.85
2022-11-05T03:35:57.566Z,3.35
2022-11-05T03:38:31.153Z,3.65
2022-11-05T03:41:02.779Z,3.28
2022-11-05T03:43:36.033Z,2.63
2022-11-05T03:46:09.755Z,3.38
2022-11-05T03:48:49.027Z,3.58
2022-11-05T03:51:23.676Z,3.80
2022-11-05T03:53:56.383Z,4.25
2022-11-05T03:56:23.627Z,3.60
2022-11-05T03:58:56.080Z,3.70
2022-11-05T04:01:25.811Z,3.90
2022-11-05T04:03:53.381Z,4.80
2022-11-05T04:06:39.423Z,4.28
2022-11-05T04:09:25.623Z,5.28
2022-11-05T04:12:11.586Z,4.60
2022-11-05T04:14:39.658Z,4.82
2022-11-05T04:17:06.616Z,4.85
2022-11-05T04:19:56.035Z,5.78
2022-11-05T04:22:43.252Z,5.32
2022-11-05T04:25:10.974Z,5.45
2022-11-05T04:27:38.158Z,5.38
2022-11-05T04:30:20.016Z,6.53
2022-11-05T04:33:11.348Z,6.90
2022-11-05T04:35:49.092Z,6.88
2022-11-05T04:38:19.965Z,8.00
2022-11-05T04:40:48.298Z,8.02
2022-11-05T04:43:18.550Z,7.57
2022-11-05T04:45:46.071Z,8.90
2022-11-05T04:48:13.408Z,8.50
2022-11-05T04:50:40.428Z,9.05
2022-11-05T04:53:08.145Z,8.77
2022-11-05T04:55:35.689Z,8.25
2022-11-05T04:58:03.008Z,8.93
2022-11-05T05:00:30.044Z,9.65
2022-11-05T05:02:57.251Z,9.82
2022-11-05T05:05:24.389Z,10.23
2022-11-05T05:07:51.403Z,10.20
2022-11-05T05:10:18.592Z,10.23
2022-11-05T05:12:45.737Z,9.60
2022-11-05T05:15:14.165Z,9.77
2022-11-05T05:17:41.299Z,10.40
2022-11-05T05:20:26.985Z,10.07
2022-11-05T05:22:55.233Z,10.50
2022-11-05T05:25:23.200Z,10.88
2022-11-05T05:27:50.389Z,11.23
2022-11-05T05:30:18.518Z,10.98
2022-11-05T05:32:45.724Z,10.93
2022-11-05T05:35:13.521Z,11.13
2022-11-05T05:37:40.650Z,12.13
2022-11-05T05:40:08.783Z,13.43
2022-11-05T05:42:41.757Z,12.25
2022-11-05T05:45:12.794Z,12.02
2022-11-05T05:47:39.819Z,12.13
2022-11-05T05:50:06.814Z,11.10
2022-11-05T05:52:34.140Z,11.55
2022-11-05T05:55:01.125Z,11.57
2022-11-05T05:57:28.257Z,11.65
2022-11-05T05:59:55.340Z,11.05
2022-11-05T06:02:23.171Z,11.65
2022-11-05T06:04:50.343Z,11.88
2022-11-05T06:07:17.355Z,11.55
2022-11-05T06:09:44.387Z,11.32
2022-11-05T06:12:11.489Z,11.35
2022-11-05T06:14:38.632Z,12.30
2022-11-05T06:17:07.326Z,11.50
2022-11-05T06:19:34.303Z,11.35
2022-11-05T06:22:01.440Z,11.48
2022-11-05T06:24:28.482Z,11.45
2022-11-05T06:26:55.753Z,12.13
2022-11-05T06:29:22.861Z,12.15
2022-11-05T06:31:49.885Z,10.60
2022-11-05T06:34:17.201Z,11.88
2022-11-05T06:36:44.158Z,11.43
2022-11-05T06:39:12.286Z,10.70
2022-11-05T06:42:03.950Z,11.25
2022-11-05T06:44:28.126Z,10.13
2022-11-05T06:46:55.030Z,11.68
2022-11-05T06:49:24.847Z,10.77
2022-11-05T06:51:52.781Z,11.50
2022-11-05T06:54:20.317Z,10.27
2022-11-05T06:56:47.523Z,10.25
2022-11-05T06:59:14.912Z,10.63
2022-11-05T07:01:42.172Z,12.02
2022-11-05T07:04:11.578Z,11.20
2022-11-05T07:06:38.832Z,11.15
2022-11-05T07:09:06.066Z,10.95
2022-11-05T07:11:33.170Z,10.93
2022-11-05T07:14:01.205Z,10.80
2022-11-05T07:16:28.377Z,10.73
2022-11-05T07:18:56.036Z,10.55
2022-11-05T07:21:24.425Z,10.95
2022-11-05T07:23:51.368Z,11.52
2022-11-05T07:26:18.356Z,11.55
2022-11-05T07:28:45.586Z,10.90
2022-11-05T07:31:12.569Z,12.68
2022-11-05T07:33:39.938Z,12.15
2022-11-05T07:36:07.130Z,14.38
2022-11-05T07:38:34.166Z,11.27
2022-11-05T07:41:01.040Z,14.75
2022-11-05T07:43:27.987Z,11.68
2022-11-05T07:45:55.248Z,12.15
2022-11-05T07:48:22.319Z,11.65
2022-11-05T07:50:52.997Z,10.63
2022-11-05T07:53:21.186Z,11.18
2022-11-05T07:55:48.289Z,10.77
2022-11-05T07:58:15.330Z,10.38
2022-11-05T08:00:42.920Z,10.52
2022-11-05T08:03:18.337Z,9.07
2022-11-05T08:05:48.168Z,11.25
2022-11-05T08:08:19.727Z,10.70
2022-11-05T08:10:48.239Z,9.82
2022-11-05T08:13:15.763Z,11.00
2022-11-05T08:15:43.554Z,10.40
2022-11-05T08:18:16.539Z,10.15
2022-11-05T08:20:45.598Z,10.65
2022-11-05T08:23:14.411Z,9.32
2022-11-05T08:25:42.112Z,9.35
2022-11-05T08:28:11.937Z,10.00
2022-11-05T08:30:38.877Z,9.88
2022-11-05T08:33:10.484Z,9.60
2022-11-05T08:35:38.908Z,9.70
2022-11-05T08:38:09.300Z,9.50
2022-11-05T08:40:37.707Z,9.50
2022-11-05T08:43:07.170Z,8.70
2022-11-05T08:45:38.205Z,9.52
2022-11-05T08:48:08.854Z,9.27
2022-11-05T08:50:37.348Z,8.68
2022-11-05T08:53:05.369Z,9.45
2022-11-05T08:55:32.743Z,8.60
2022-11-05T08:58:05.005Z,7.65
2022-11-05T09:03:02.662Z,6.97
2022-11-05T09:05:32.207Z,8.23
2022-11-05T09:08:01.407Z,7.80
2022-11-05T09:10:29.183Z,8.15
2022-11-05T09:12:56.326Z,7.60
2022-11-05T09:15:24.658Z,6.85
2022-11-05T09:17:51.819Z,6.95
2022-11-05T09:20:19.652Z,6.72
2022-11-05T09:22:47.014Z,6.43
2022-11-05T09:25:15.926Z,7.18
2022-11-05T09:27:43.714Z,6.35
2022-11-05T09:30:12.649Z,6.45
2022-11-05T09:32:39.973Z,7.65
2022-11-05T09:35:08.258Z,6.65
2022-11-05T09:37:37.022Z,6.60
2022-11-05T09:40:05.013Z,6.00
2022-11-05T09:42:40.323Z,6.53
2022-11-05T09:45:35.327Z,6.05
2022-11-05T09:48:10.469Z,6.65
2022-11-05T09:50:42.542Z,7.07
2022-11-05T09:53:14.496Z,6.82
2022-11-05T09:55:48.298Z,6.85
2022-11-05T09:58:32.246Z,7.03
2022-11-05T10:00:59.988Z,6.88
2022-11-05T10:03:30.053Z,6.82
2022-11-05T10:06:08.170Z,7.43
2022-11-05T10:08:41.622Z,6.53
2022-11-05T10:11:18.351Z,6.47
2022-11-05T10:13:55.237Z,6.93
2022-11-05T10:16:25.286Z,6.20
2022-11-05T10:19:09.828Z,6.50
2022-11-05T10:22:04.964Z,6.38
2022-11-05T10:24:24.940Z,5.93
2022-11-05T10:26:53.877Z,5.90
2022-11-05T10:29:29.617Z,5.40
2022-11-05T10:31:58.539Z,6.18
2022-11-05T10:34:32.255Z,4.78
2022-11-05T10:36:59.407Z,5.10
2022-11-05T10:39:29.629Z,5.57
2022-11-05T10:42:08.796Z,5.20
2022-11-05T10:44:35.888Z,4.35
2022-11-05T10:47:06.921Z,4.85
2022-11-05T10:49:59.406Z,4.13
2022-11-05T10:52:29.526Z,4.22
2022-11-05T10:55:01.152Z,3.75
2022-11-05T10:57:49.513Z,4.20
2022-11-05T11:00:19.641Z,4.22
2022-11-05T11:03:01.230Z,3.50
2022-11-05T11:05:40.287Z,3.08
2022-11-05T11:08:13.366Z,4.18
2022-11-05T11:10:49.088Z,3.65
2022-11-05T11:13:21.558Z,4.03
2022-11-05T11:15:51.055Z,3.58
2022-11-05T11:18:34.562Z,3.30
2022-11-05T11:21:14.931Z,3.50
2022-11-05T11:23:48.236Z,3.40
2022-11-05T11:26:16.034Z,3.63
2022-11-05T11:28:59.989Z,4.20
2022-11-05T11:31:32.018Z,3.50
2022-11-05T11:34:04.621Z,3.58
2022-11-05T11:36:48.251Z,3.65
2022-11-05T11:39:19.575Z,3.25
2022-11-05T11:41:51.836Z,3.43
2022-11-05T11:46:51.559Z,2.70
2022-11-05T11:49:44.496Z,2.47
2022-11-05T11:52:15.002Z,3.20
2022-11-05T11:54:42.691Z,2.63
2022-11-05T11:57:28.103Z,3.13
2022-11-05T12:00:12.349Z,1.90
2022-11-05T12:03:05.135Z,1.92
2022-11-05T12:05:41.615Z,2.40
2022-11-05T12:08:19.522Z,1.90
2022-11-05T12:11:23.780Z,2.00
2022-11-05T12:14:09.085Z,1.70
2022-11-05T12:16:57.128Z,1.60
2022-11-05T12:19:42.191Z,2.15
2022-11-05T12:22:41.764Z,1.85
2022-11-05T12:25:09.127Z,1.88
2022-11-05T12:28:06.176Z,1.80
2022-11-05T12:30:48.031Z,1.83
2022-11-05T12:33:15.755Z,1.60
2022-11-05T12:44:18.825Z,1.83
2022-11-05T12:47:13.281Z,1.48
2022-11-05T12:49:51.450Z,1.60
2022-11-05T12:52:47.118Z,1.52
2022-11-05T12:55:19.071Z,1.83
2022-11-05T12:57:52.057Z,2.50
2022-11-05T13:00:37.618Z,2.00
2022-11-05T13:03:25.906Z,1.67
2022-11-05T13:06:06.271Z,1.77
2022-11-05T13:08:48.537Z,2.03
2022-11-05T13:11:28.275Z,1.60
2022-11-05T13:14:09.676Z,1.83
2022-11-05T13:16:42.657Z,2.25
2022-11-05T13:19:16.011Z,1.90
2022-11-05T13:21:46.965Z,1.98
2022-11-05T13:24:24.741Z,2.05
2022-11-05T13:27:14.791Z,1.83
2022-11-05T13:29:52.664Z,2.20
2022-11-05T13:32:37.426Z,1.85
2022-11-05T13:35:08.619Z,2.10
2022-11-05T13:37:58.668Z,1.80
2022-11-05T13:40:50.505Z,2.30
2022-11-05T13:43:35.972Z,2.03
2022-11-05T13:46:46.871Z,2.00
2022-11-05T13:49:36.921Z,1.75
2022-11-05T13:52:14.626Z,2.33
2022-11-05T13:55:07.669Z,1.60
2022-11-05T13:57:49.699Z,2.00
2022-11-05T14:00:25.628Z,2.05
2022-11-05T14:02:52.572Z,1.85
2022-11-05T14:05:40.073Z,1.95
2022-11-05T14:08:18.768Z,2.28
2022-11-05T14:10:59.783Z,2.47
2022-11-05T14:13:40.050Z,2.15
2022-11-05T14:16:24.491Z,2.00
2022-11-05T14:27:21.242Z,2.25
2022-11-05T14:29:50.143Z,2.35
2022-11-05T14:32:19.824Z,2.00
2022-11-05T14:35:17.653Z,2.47
2022-11-05T14:37:59.078Z,1.77
2022-11-05T14:40:37.145Z,2.00
2022-11-05T14:43:15.221Z,2.28
2022-11-05T14:45:56.161Z,2.15
2022-11-05T14:48:25.933Z,2.10
2022-11-05T14:50:53.317Z,2.05
2022-11-05T14:53:34.510Z,2.35
2022-11-05T14:56:05.369Z,2.60
2022-11-05T14:58:35.775Z,2.20
2022-11-05T15:01:31.954Z,2.63
2022-11-05T15:04:17.099Z,2.08
2022-11-05T15:07:07.568Z,1.77
2022-11-05T15:09:49.582Z,2.15
2022-11-05T15:12:35.003Z,2.70
2022-11-05T15:15:24.000Z,2.15
2022-11-05T15:18:13.856Z,1.75
2022-11-05T15:20:45.614Z,2.33
2022-11-05T15:23:19.047Z,1.92
2022-11-05T15:26:08.352Z,2.17
2022-11-05T15:29:14.550Z,2.03
2022-11-05T15:31:45.338Z,1.83
2022-11-05T15:40:22.938Z,1.48
2022-11-05T15:43:17.497Z,1.75
2022-11-05T15:45:57.330Z,2.60
2022-11-05T15:48:24.376Z,1.77
2022-11-05T15:50:51.751Z,1.95
2022-11-05T15:56:20.295Z,2.15
2022-11-05T15:58:54.097Z,2.63
2022-11-05T16:01:31.021Z,2.65
2022-11-05T16:04:08.604Z,3.72
2022-11-05T16:06:40.127Z,2.72
2022-11-05T16:09:08.177Z,2.30
2022-11-05T16:11:35.131Z,2.78
2022-11-05T16:14:19.384Z,2.65
2022-11-05T16:16:47.024Z,3.13
2022-11-05T16:19:41.034Z,3.25
2022-11-05T16:22:08.948Z,2.55
2022-11-05T16:24:36.150Z,3.28
2022-11-05T16:27:03.972Z,4.10
2022-11-05T16:29:47.505Z,3.38
2022-11-05T16:32:25.433Z,3.65
2022-11-05T16:34:59.835Z,6.32
2022-11-05T16:37:37.093Z,4.50
2022-11-05T16:40:14.842Z,4.82
2022-11-05T16:42:42.373Z,4.40
2022-11-05T16:45:14.719Z,4.93
2022-11-05T16:47:43.269Z,5.55
2022-11-05T16:50:20.228Z,5.07
2022-11-05T16:52:47.792Z,5.10
2022-11-05T16:55:15.966Z,5.32
2022-11-05T16:57:46.053Z,5.18
2022-11-05T17:00:18.989Z,5.65
2022-11-05T17:02:46.756Z,5.20
2022-11-05T17:05:21.327Z,5.68
2022-11-05T17:07:48.449Z,5.50
2022-11-05T17:10:16.103Z,5.95
2022-11-05T17:12:43.678Z,5.93
2022-11-05T17:15:25.237Z,6.18
2022-11-05T17:17:53.940Z,6.53
2022-11-05T17:20:38.255Z,6.68
2022-11-05T17:23:09.006Z,6.57
2022-11-05T17:25:36.500Z,6.60
2022-11-05T17:28:04.549Z,7.25
2022-11-05T17:30:32.722Z,7.22
2022-11-05T17:32:59.929Z,7.18
2022-11-05T17:35:28.810Z,8.15
2022-11-05T17:37:55.909Z,6.97
2022-11-05T17:40:24.037Z,8.27
2022-11-05T17:42:52.021Z,8.40
2022-11-05T17:45:19.067Z,8.48
2022-11-05T17:47:46.290Z,8.43
2022-11-05T17:50:15.445Z,8.48
2022-11-05T17:52:43.092Z,7.47
2022-11-05T17:55:16.822Z,7.57
2022-11-05T17:57:49.506Z,7.70
2022-11-05T18:00:19.951Z,6.85
2022-11-05T18:02:49.623Z,6.90
2022-11-05T18:05:18.588Z,6.72
2022-11-05T18:07:47.084Z,7.07
2022-11-05T18:10:15.139Z,7.93
2022-11-05T18:12:42.582Z,10.68
2022-11-05T18:15:10.985Z,9.50
2022-11-05T18:17:38.237Z,6.88
2022-11-05T18:20:11.671Z,6.70
2022-11-05T18:22:42.268Z,6.32
2022-11-05T18:25:10.901Z,6.68
2022-11-05T18:27:38.123Z,6.53
2022-11-05T18:30:05.629Z,6.22
2022-11-05T18:32:32.833Z,6.80
2022-11-05T18:35:00.202Z,7.07
2022-11-05T18:37:27.383Z,6.70
2022-11-05T18:39:54.935Z,6.40
2022-11-05T18:51:56.393Z,6.10
2022-11-05T18:54:23.504Z,6.88
2022-11-05T18:56:50.893Z,5.70
2022-11-05T19:02:08.679Z,6.07
2022-11-05T19:04:36.786Z,5.88
2022-11-05T19:07:05.728Z,5.50
2022-11-05T19:09:37.983Z,6.20
2022-11-05T19:12:07.182Z,5.00
2022-11-05T19:14:36.939Z,5.65
2022-11-05T19:17:04.447Z,5.50
2022-11-05T19:19:31.659Z,5.25
2022-11-05T19:21:58.882Z,6.13
2022-11-05T19:24:25.976Z,4.82
2022-11-05T19:26:53.019Z,5.05
2022-11-05T19:29:20.125Z,5.38
2022-11-05T19:31:47.379Z,5.53
2022-11-05T19:34:15.100Z,4.95
2022-11-05T19:36:42.747Z,4.43
2022-11-05T19:39:13.052Z,5.20
2022-11-05T19:41:40.648Z,5.13
2022-11-05T19:44:08.117Z,4.75
2022-11-05T19:46:35.689Z,4.85
2022-11-05T19:49:03.329Z,4.90
2022-11-05T19:51:32.209Z,4.88
2022-11-05T19:54:01.914Z,4.70
2022-11-05T19:56:30.960Z,5.85
2022-11-05T19:58:59.267Z,5.05
2022-11-05T20:01:28.024Z,4.90
2022-11-05T20:03:57.176Z,4.70
2022-11-05T20:06:28.733Z,4.65
2022-11-05T20:09:20.564Z,4.95
2022-11-05T20:11:48.799Z,4.80
2022-11-05T20:14:16.414Z,4.75
2022-11-05T20:16:45.002Z,5.25
2022-11-05T20:19:15.216Z,5.47
2022-11-05T20:21:42.778Z,4.82
2022-11-05T20:24:12.622Z,6.15
2022-11-05T20:26:39.844Z,4.72
2022-11-05T20:29:07.161Z,4.65
2022-11-05T20:31:34.487Z,4.75
2022-11-05T20:34:01.619Z,4.97
2022-11-05T20:36:28.478Z,6.03
2022-11-05T20:39:02.304Z,4.38
2022-11-05T20:41:30.827Z,5.03
2022-11-05T20:43:57.846Z,4.75
2022-11-05T20:46:25.305Z,5.18
2022-11-05T20:48:53.603Z,4.13
2022-11-05T20:51:24.275Z,4.68
2022-11-05T20:53:56.272Z,4.93
2022-11-05T20:56:26.515Z,4.53
2022-11-05T20:58:58.845Z,4.43
2022-11-05T21:01:28.595Z,4.88
2022-11-05T21:03:56.741Z,4.63
2022-11-05T21:06:24.306Z,4.32
2022-11-05T21:08:52.297Z,4.40
2022-11-05T21:11:20.107Z,3.78
2022-11-05T21:13:49.080Z,4.88
2022-11-05T21:16:18.754Z,4.25
2022-11-05T21:18:47.703Z,4.55
2022-11-05T21:21:19.415Z,3.85
2022-11-05T21:23:47.177Z,3.70
2022-11-05T21:26:15.336Z,4.15
2022-11-05T21:28:42.597Z,4.68
2022-11-05T21:31:10.306Z,4.05
2022-11-05T21:33:38.456Z,3.85
2022-11-05T21:36:08.107Z,4.05
2022-11-05T21:38:35.467Z,3.58
2022-11-05T21:41:03.724Z,3.42
2022-11-05T21:43:31.684Z,3.25
2022-11-05T21:46:02.465Z,4.88
2022-11-05T21:48:30.168Z,3.10
2022-11-05T21:51:15.901Z,3.20
2022-11-05T21:54:03.201Z,3.83
2022-11-05T21:56:49.861Z,3.30
2022-11-05T21:59:39.206Z,4.85
2022-11-05T22:02:07.852Z,3.88
2022-11-05T22:04:37.531Z,3.15
2022-11-05T22:07:06.265Z,3.25
2022-11-05T22:09:33.648Z,3.30
2022-11-05T22:12:01.410Z,3.13
2022-11-05T22:14:29.322Z,3.70
2022-11-05T22:17:00.322Z,4.10
2022-11-05T22:19:27.577Z,3.72
2022-11-05T22:21:54.750Z,3.13
2022-11-05T22:24:22.594Z,3.60
2022-11-05T22:26:50.586Z,3.67
2022-11-05T22:29:18.088Z,3.38
2022-11-05T22:31:45.551Z,3.15
2022-11-05T22:34:13.588Z,3.22
2022-11-05T22:36:40.726Z,3.40
2022-11-05T22:39:08.395Z,2.97
2022-11-05T22:41:35.300Z,3.33
2022-11-05T22:44:03.719Z,3.20
2022-11-05T22:46:31.508Z,3.30
2022-11-05T22:49:00.188Z,2.92
2022-11-05T22:51:29.512Z,3.20
2022-11-05T22:53:57.318Z,3.20
2022-11-05T22:56:27.099Z,2.72
2022-11-05T22:58:54.673Z,2.80
2022-11-05T23:01:23.066Z,3.38
2022-11-05T23:03:52.396Z,2.55
2022-11-05T23:06:40.770Z,2.58
2022-11-05T23:09:33.978Z,2.72
2022-11-05T23:12:01.674Z,2.63
2022-11-05T23:14:29.143Z,2.42
2022-11-05T23:17:15.365Z,2.63
2022-11-05T23:20:01.248Z,2.40
2022-11-05T23:22:49.551Z,2.60
2022-11-05T23:25:19.787Z,2.42
2022-11-05T23:27:51.600Z,2.47
2022-11-05T23:30:21.017Z,2.50
2022-11-05T23:32:49.271Z,2.75
2022-11-05T23:35:16.765Z,2.33
2022-11-05T23:38:03.136Z,2.38
2022-11-05T23:40:51.981Z,2.55
2022-11-05T23:43:37.797Z,2.33
2022-11-05T23:46:23.574Z,2.42
2022-11-05T23:48:50.794Z,2.92
2022-11-05T23:51:17.762Z,1.90
2022-11-05T23:53:44.888Z,2.10
2022-11-05T23:56:14.232Z,2.78
2022-11-05T23:58:42.573Z,2.08
